Time;durP1;ratioP1;P1;durP2;ratioP2;P2;SDS_P1;SDS_P2;PMS_P1;PMS_P2;Temp;Humidity;BMP_temperature;BMP_pressure;BME280_temperature;BME280_humidity;BME280_pressure;Samples;Min_cycle;Max_cycle;Signal;HPM_P1;HPM_P2
2023/07/17 00:01:10;;;;;;;;;;;23.50;37.70;;;22.87;36.98;101152.84;12257474;19;19929;-87
2023/07/17 00:05:11;;;;;;;;;;;23.40;37.70;;;22.78;37.28;101159.97;12254854;19;19922;-86
2023/07/17 00:09:16;;;;;;;;;;;23.30;37.70;;;22.71;37.32;101159.75;12257560;19;20257;-87
2023/07/17 00:13:18;;;;;;;;;;;23.20;38.00;;;22.68;37.19;101167.19;12268372;19;19930;-87
2023/07/17 00:17:20;;;;;;;;;;;23.20;38.10;;;22.54;37.18;101153.41;12265274;19;19911;-87
2023/07/17 00:21:22;;;;;;;;;;;23.10;38.00;;;22.49;36.99;101161.06;12265587;19;19926;-87
2023/07/17 00:25:24;;;;;;;;;;;23.00;37.90;;;22.41;37.39;101152.94;12260585;19;19934;-87
2023/07/17 00:29:30;;;;;;;;;;;22.90;38.30;;;22.36;37.33;101141.97;12267036;19;19951;-87
2023/07/17 00:33:31;;;;;;;;;;;22.90;38.40;;;22.42;37.40;101159.13;12265174;19;20325;-87
2023/07/17 00:37:32;;;;;;;;;;;22.90;38.20;;;22.23;37.18;101139.66;12259560;19;19923;-86
2023/07/17 00:41:34;;;;;;;;;;;22.80;38.10;;;22.28;37.75;101141.88;12265893;19;20006;-87
2023/07/17 00:45:36;;;;;;;;;;;22.80;38.30;;;22.29;37.49;101155.00;12260323;19;19938;-87
2023/07/17 00:49:37;;;;;;;;;;;22.80;38.30;;;22.05;37.58;101120.13;12263957;19;19947;-87
2023/07/17 00:53:38;;;;;;;;;;;22.80;38.30;;;22.14;37.71;101147.66;12264075;19;19921;-87
2023/07/17 00:57:40;;;;;;;;;;;22.70;38.30;;;22.22;37.89;101158.41;12261084;19;20386;-87
2023/07/17 01:01:41;;;;;;;;;;;22.70;38.40;;;22.19;37.64;101164.03;12265017;19;19918;-87
2023/07/17 01:05:43;;;;;;;;;;;22.70;38.80;;;22.16;38.04;101157.16;12257621;19;19915;-88
2023/07/17 01:09:44;;;;;;;;;;;22.70;38.50;;;21.83;37.79;101122.22;12264402;19;19919;-87
2023/07/17 01:13:47;;;;;;;;;;;22.60;38.30;;;21.96;37.95;101137.00;12261341;19;19919;-87
2023/07/17 01:17:48;;;;;;;;;;;22.60;38.50;;;21.79;38.01;101120.88;12256602;19;19910;-87
2023/07/17 01:21:57;;;;;;;;;;;22.60;38.50;;;21.97;38.09;101147.47;12261349;19;19934;-87
2023/07/17 01:25:59;;;;;;;;;;;22.60;38.60;;;21.87;38.39;101118.31;12253100;19;19923;-87
2023/07/17 01:30:00;;;;;;;;;;;22.50;38.80;;;21.97;38.01;101134.19;12260450;19;19971;-87
2023/07/17 01:34:02;;;;;;;;;;;22.60;38.70;;;21.95;38.03;101144.13;12260746;19;20345;-87
2023/07/17 01:38:04;;;;;;;;;;;22.50;38.70;;;21.99;38.48;101142.03;12254795;19;19923;-87
2023/07/17 01:42:05;;;;;;;;;;;22.60;38.90;;;21.72;38.48;101098.50;12260332;19;19917;-87
2023/07/17 01:46:07;;;;;;;;;;;22.50;38.80;;;21.81;38.21;101131.34;12246496;19;19910;-87
2023/07/17 01:50:09;;;;;;;;;;;22.50;38.80;;;21.79;38.23;101134.16;12259465;19;19961;-87
2023/07/17 01:54:11;;;;;;;;;;;22.50;39.00;;;21.87;38.58;101149.34;12257807;19;19943;-87
2023/07/17 01:58:13;;;;;;;;;;;22.50;39.00;;;21.72;38.54;101125.09;12258923;19;19927;-87
2023/07/17 02:02:14;;;;;;;;;;;22.40;39.00;;;;;;12259545;19;19919;-87
2023/07/17 02:06:16;;;;;;;;;;;22.40;38.90;;;21.53;38.37;101112.72;12254640;19;19949;-87
2023/07/17 02:10:19;;;;;;;;;;;22.40;39.00;;;21.79;38.46;101151.91;12258460;19;19907;-87
2023/07/17 02:14:21;;;;;;;;;;;22.40;39.30;;;21.77;38.81;101159.22;12256188;19;19922;-87
2023/07/17 02:18:23;;;;;;;;;;;22.40;39.20;;;21.73;38.74;101156.00;12255890;19;19930;-87
2023/07/17 02:22:24;;;;;;;;;;;22.40;39.50;;;21.67;39.06;101147.78;12256147;19;19917;-87
2023/07/17 02:26:26;;;;;;;;;;;22.40;39.20;;;21.59;38.58;101146.69;12251888;19;19915;-87
2023/07/17 02:30:27;;;;;;;;;;;22.40;39.20;;;21.59;38.90;101152.00;12253959;19;19907;-87
2023/07/17 02:34:29;;;;;;;;;;;22.30;39.20;;;21.63;38.74;101158.72;12253708;19;19974;-87
2023/07/17 02:38:31;;;;;;;;;;;22.30;39.30;;;21.48;38.99;101138.91;12255463;19;19911;-87
2023/07/17 02:42:33;;;;;;;;;;;22.30;39.20;;;21.46;39.18;101138.19;12255096;19;19922;-87
2023/07/17 02:46:34;;;;;;;;;;;22.20;39.20;;;21.39;38.81;101142.44;12252294;19;19911;-87
2023/07/17 02:50:36;;;;;;;;;;;22.10;39.10;;;21.26;39.18;101125.94;12255214;19;19989;-87
2023/07/17 02:54:37;;;;;;;;;;;22.00;39.10;;;21.18;39.05;101122.19;12253232;19;19938;-87
2023/07/17 02:58:42;;;;;;;;;;;21.90;39.20;;;21.24;39.14;101143.84;12254326;19;19927;-88
2023/07/17 03:02:46;;;;;;;;;;;21.90;39.00;;;21.18;39.46;101154.06;12254478;19;19929;-87
2023/07/17 03:06:48;;;;;;;;;;;21.80;39.30;;;21.04;39.20;101153.69;12251871;19;19922;-87
2023/07/17 03:10:50;;;;;;;;;;;21.80;39.40;;;21.10;39.33;101182.31;12253335;19;19915;-87
2023/07/17 03:14:52;;;;;;;;;;;21.70;39.80;;;20.93;39.29;101155.50;12254475;19;19918;-87
2023/07/17 03:18:54;;;;;;;;;;;21.70;39.50;;;20.92;39.59;101169.72;12251210;19;20318;-87
2023/07/17 03:22:55;;;;;;;;;;;21.70;39.50;;;20.92;39.34;101177.69;12252539;19;19954;-87
2023/07/17 03:26:58;;;;;;;;;;;21.60;39.50;;;20.88;39.59;101167.53;12247362;19;19937;-87
2023/07/17 03:31:01;;;;;;;;;;;21.60;39.70;;;20.85;39.77;101167.81;12248276;19;19939;-87
2023/07/17 03:35:03;;;;;;;;;;;21.60;39.80;;;20.89;39.53;101183.28;12247768;19;20267;-87
2023/07/17 03:39:05;;;;;;;;;;;21.50;39.70;;;20.77;39.44;101179.97;12249919;19;19923;-87
2023/07/17 03:43:07;;;;;;;;;;;21.50;39.60;;;20.79;39.66;101187.75;12255255;19;20575;-87
2023/07/17 03:47:08;;;;;;;;;;;21.50;39.70;;;20.70;39.58;101176.19;12258237;19;19978;-88
2023/07/17 03:51:12;;;;;;;;;;;21.40;39.60;;;20.71;39.78;101185.84;12261006;19;19907;-87
2023/07/17 03:55:15;;;;;;;;;;;21.40;39.60;;;20.59;39.82;101173.66;12262461;19;19922;-87
2023/07/17 03:59:22;;;;;;;;;;;21.40;39.70;;;20.54;40.03;101167.94;12263491;19;19907;-87
2023/07/17 04:03:24;;;;;;;;;;;21.30;39.60;;;20.53;39.73;101182.16;12258654;19;20340;-87
2023/07/17 04:07:26;;;;;;;;;;;21.30;39.60;;;20.42;39.92;101180.47;12255164;19;20279;-87
2023/07/17 04:11:27;;;;;;;;;;;21.20;39.90;;;20.36;40.00;101172.19;12261479;19;19911;-87
2023/07/17 04:15:29;;;;;;;;;;;21.20;39.80;;;20.42;39.80;101188.41;12255533;19;20026;-87
2023/07/17 04:19:32;;;;;;;;;;;21.10;39.70;;;20.38;39.94;101192.31;12261553;19;19921;-87
2023/07/17 04:23:33;;;;;;;;;;;21.10;39.80;;;20.32;40.07;101200.81;12260332;19;19940;-86
2023/07/17 04:27:38;;;;;;;;;;;21.10;39.90;;;20.29;39.95;101190.50;12257850;19;19911;-87
2023/07/17 04:31:40;;;;;;;;;;;21.10;39.90;;;20.22;39.97;101187.53;12257855;19;19925;-87
2023/07/17 04:35:42;;;;;;;;;;;21.00;40.00;;;20.14;40.15;101176.75;12256130;19;19919;-87
2023/07/17 04:39:44;;;;;;;;;;;20.90;39.90;;;20.22;39.89;101194.66;12262055;19;19922;-87
2023/07/17 04:43:47;;;;;;;;;;;21.00;40.20;;;20.18;40.42;101190.59;12259470;19;20267;-87
2023/07/17 04:47:49;;;;;;;;;;;21.00;40.20;;;20.20;40.25;101189.50;12252944;19;20341;-87
2023/07/17 04:51:51;;;;;;;;;;;21.00;40.20;;;20.15;40.44;101169.66;12260662;19;19923;-87
2023/07/17 04:55:53;;;;;;;;;;;21.00;40.40;;;20.24;40.28;101185.59;12259225;19;20005;-89
2023/07/17 04:59:55;;;;;;;;;;;21.00;40.70;;;20.03;40.33;101155.66;12264368;19;19923;-89
2023/07/17 05:03:56;;;;;;;;;;;21.00;40.70;;;20.19;40.61;101165.75;12263477;19;19975;-89
2023/07/17 05:07:58;;;;;;;;;;;21.00;40.70;;;20.43;40.47;101203.34;12260507;19;20425;-89
2023/07/17 05:12:00;;;;;;;;;;;21.20;40.80;;;20.53;40.84;101204.25;12263817;19;19911;-89
2023/07/17 05:16:07;;;;;;;;;;;21.30;40.90;;;20.63;40.71;101196.31;12256088;19;19911;-89
2023/07/17 05:20:09;;;;;;;;;;;21.40;40.80;;;20.50;40.80;101155.91;12264604;19;19962;-89
2023/07/17 05:24:13;;;;;;;;;;;21.50;40.90;;;20.89;40.54;101199.22;12261089;19;19911;-89
2023/07/17 05:28:17;;;;;;;;;;;21.70;40.80;;;20.84;40.97;101176.72;12261161;19;20377;-90
2023/07/17 05:32:19;;;;;;;;;;;21.80;40.90;;;21.14;40.82;101211.13;12261351;19;20275;-89
2023/07/17 05:36:20;;;;;;;;;;;22.00;40.90;;;21.25;40.72;101220.72;12259130;19;19915;-89
2023/07/17 05:40:23;;;;;;;;;;;22.10;40.60;;;21.28;40.66;101209.84;12263106;19;19963;-89
2023/07/17 05:44:24;;;;;;;;;;;22.20;40.70;;;21.39;40.86;101219.50;12260061;19;19947;-90
2023/07/17 05:48:26;;;;;;;;;;;22.30;40.60;;;21.44;40.84;101206.59;12261976;19;19910;-88
2023/07/17 05:52:28;;;;;;;;;;;22.40;40.90;;;21.59;41.04;101214.94;12260786;19;19927;-89
2023/07/17 05:56:30;;;;;;;;;;;22.50;40.40;;;21.61;40.88;101208.50;12258601;19;19933;-89
2023/07/17 06:00:31;;;;;;;;;;;22.60;40.20;;;21.65;40.76;101207.22;12259361;19;19918;-84
2023/07/17 06:04:33;;;;;;;;;;;22.60;40.30;;;21.75;41.16;101201.06;12255683;19;19923;-84
2023/07/17 06:08:34;;;;;;;;;;;22.70;40.40;;;21.97;41.07;101223.78;12258306;19;20233;-84
2023/07/17 06:12:36;;;;;;;;;;;22.80;40.40;;;22.09;40.86;101220.78;12260170;19;19915;-83
2023/07/17 06:16:38;;;;;;;;;;;23.00;40.40;;;22.21;40.89;101209.97;12256101;19;19925;-84
2023/07/17 06:20:40;;;;;;;;;;;23.10;40.40;;;22.40;41.01;101215.16;12259571;19;19934;-84
2023/07/17 06:24:41;;;;;;;;;;;23.30;40.30;;;22.58;40.89;101217.84;12256219;19;19915;-84
2023/07/17 06:28:43;;;;;;;;;;;23.50;40.30;;;22.63;40.82;101196.09;12260323;19;19923;-84
2023/07/17 06:32:44;;;;;;;;;;;23.70;40.30;;;22.81;40.90;101198.75;12258646;19;19915;-84
2023/07/17 06:36:46;;;;;;;;;;;23.80;40.20;;;23.03;40.80;101218.78;12255841;19;19939;-84
2023/07/17 06:40:52;;;;;;;;;;;24.00;40.20;;;23.14;40.99;101208.75;12259869;19;20301;-84
2023/07/17 06:44:53;;;;;;;;;;;24.20;40.10;;;23.27;41.01;101205.66;12255238;19;19935;-84
2023/07/17 06:48:55;;;;;;;;;;;24.30;40.00;;;23.40;40.72;101205.25;12256208;19;19978;-84
2023/07/17 06:52:57;;;;;;;;;;;24.50;39.90;;;23.50;40.65;101197.97;12258203;19;19967;-84
2023/07/17 06:56:58;;;;;;;;;;;24.60;39.80;;;23.52;41.03;101189.81;12257274;19;20413;-84
2023/07/17 07:01:00;;;;;;;;;;;24.70;39.70;;;23.83;40.90;101219.53;12257956;19;19985;-84
2023/07/17 07:05:02;;;;;;;;;;;24.90;39.60;;;23.95;40.78;101223.59;12254133;19;19943;-85
2023/07/17 07:09:04;;;;;;;;;;;25.00;39.50;;;24.06;40.89;101227.78;12258230;19;19939;-85
2023/07/17 07:13:06;;;;;;;;;;;25.10;39.40;;;23.93;40.46;101184.72;12256831;19;19926;-84
2023/07/17 07:17:08;;;;;;;;;;;25.20;39.20;;;24.22;40.44;101214.53;12250276;19;19950;-83
2023/07/17 07:21:09;;;;;;;;;;;25.30;39.10;;;24.23;40.47;101205.50;12255168;19;19907;-84
2023/07/17 07:25:11;;;;;;;;;;;25.40;39.00;;;24.54;40.85;101234.31;12252147;19;19929;-84
2023/07/17 07:29:12;;;;;;;;;;;25.50;39.00;;;24.62;40.65;101230.81;12249470;19;19925;-83
2023/07/17 07:33:14;;;;;;;;;;;25.60;39.00;;;24.79;40.58;101242.34;12247534;19;19934;-84
2023/07/17 07:37:15;;;;;;;;;;;25.80;39.00;;;24.70;40.49;101215.63;12245459;19;19922;-84
2023/07/17 07:41:17;;;;;;;;;;;25.90;39.10;;;25.06;40.82;101250.09;12247584;19;19930;-84
2023/07/17 07:45:21;;;;;;;;;;;26.00;39.00;;;25.15;40.63;101254.44;12246064;19;19915;-84
2023/07/17 07:49:23;;;;;;;;;;;26.20;38.80;;;25.26;40.54;101252.44;12246623;19;20355;-84
2023/07/17 07:53:24;;;;;;;;;;;26.30;38.90;;;25.33;40.62;101234.72;12248992;19;19930;-83
2023/07/17 07:57:26;;;;;;;;;;;26.50;39.10;;;25.65;40.65;101254.38;12245774;19;20278;-84
2023/07/17 08:01:27;;;;;;;;;;;26.60;38.60;;;25.78;40.31;101239.47;12246490;19;19927;-83
2023/07/17 08:05:29;;;;;;;;;;;26.80;38.90;;;26.02;40.14;101251.97;12243788;19;19915;-83
2023/07/17 08:09:30;;;;;;;;;;;27.10;38.50;;;26.21;40.15;101247.22;12248637;19;19923;-83
2023/07/17 08:13:32;;;;;;;;;;;27.30;38.60;;;26.43;40.40;101262.47;12245940;19;19978;-83
2023/07/17 08:17:34;;;;;;;;;;;27.50;38.70;;;26.58;40.18;101256.44;12242625;19;19942;-84
2023/07/17 08:21:36;;;;;;;;;;;27.60;38.40;;;26.84;40.01;101262.28;12247500;19;19945;-85
2023/07/17 08:25:38;;;;;;;;;;;27.90;38.50;;;26.95;40.09;101252.13;12247305;19;19919;-84
2023/07/17 08:29:40;;;;;;;;;;;28.00;38.30;;;27.15;40.03;101266.72;12248712;19;20340;-86
2023/07/17 08:33:42;;;;;;;;;;;28.20;38.30;;;27.28;39.78;101258.94;12260875;19;19927;-84
2023/07/17 08:37:43;;;;;;;;;;;28.40;38.40;;;27.55;40.00;101264.72;12254036;19;19914;-84
2023/07/17 08:41:50;;;;;;;;;;;28.60;37.70;;;27.62;39.82;101244.16;12259686;19;19919;-84
2023/07/17 08:45:52;;;;;;;;;;;28.80;37.50;;;27.63;39.72;101223.56;12253431;19;19930;-84
2023/07/17 08:49:55;;;;;;;;;;;28.90;37.70;;;27.83;39.84;101226.53;12257361;19;20412;-84
2023/07/17 08:53:57;;;;;;;;;;;29.10;37.40;;;28.10;39.51;101247.34;12256215;19;19918;-84
2023/07/17 08:58:01;;;;;;;;;;;29.20;37.60;;;28.27;39.52;101258.69;12252359;19;19944;-84
2023/07/17 09:02:04;;;;;;;;;;;29.40;37.10;;;28.47;39.47;101267.03;12255366;19;20000;-84
2023/07/17 09:06:05;;;;;;;;;;;29.50;37.30;;;28.59;38.98;101270.06;12257740;19;19919;-83
2023/07/17 09:10:21;;;;;;;;;;;29.60;36.90;;;28.63;38.96;101249.84;12259092;19;19927;-84
2023/07/17 09:14:22;;;;;;;;;;;29.70;37.20;;;28.74;38.99;101265.47;12254788;19;20288;-84
2023/07/17 09:18:26;;;;;;;;;;;29.80;36.20;;;28.74;38.57;101252.03;12253435;19;19974;-84
2023/07/17 09:22:27;;;;;;;;;;;29.80;36.70;;;28.81;38.42;101250.25;12251966;19;19919;-84
2023/07/17 09:26:29;;;;;;;;;;;29.90;36.10;;;28.96;38.72;101252.03;12246794;19;19923;-84
2023/07/17 09:30:31;;;;;;;;;;;30.00;36.40;;;29.06;38.54;101264.16;12252425;19;20326;-83
2023/07/17 09:34:33;;;;;;;;;;;30.10;36.70;;;29.18;38.57;101266.31;12254233;19;19918;-84
2023/07/17 09:38:35;;;;;;;;;;;30.20;36.30;;;29.25;38.47;101261.84;12254206;19;20325;-85
2023/07/17 09:42:41;;;;;;;;;;;30.20;36.50;;;29.36;38.33;101258.59;12250893;19;19954;-84
2023/07/17 09:46:43;;;;;;;;;;;30.40;36.40;;;29.46;38.12;101264.47;12250372;19;19914;-85
2023/07/17 09:50:45;;;;;;;;;;;30.40;36.20;;;29.53;37.85;101251.88;12250018;19;19918;-85
2023/07/17 09:54:51;;;;;;;;;;;30.50;35.80;;;29.59;37.90;101262.91;12250797;19;20019;-84
2023/07/17 09:58:54;;;;;;;;;;;30.60;36.20;;;29.61;38.05;101236.63;12250524;19;19911;-84
2023/07/17 10:03:10;;;;;;;;;;;30.70;35.60;;;29.78;37.68;101236.13;12250543;19;19926;-85
2023/07/17 10:07:13;;;;;;;;;;;30.80;36.10;;;29.93;37.77;101241.38;12247506;19;19922;-84
2023/07/17 10:11:15;;;;;;;;;;;30.90;36.40;;;30.07;37.61;101244.13;12247306;19;19925;-84
2023/07/17 10:15:17;;;;;;;;;;;31.00;36.30;;;30.12;37.51;101242.50;12247570;19;19918;-85
2023/07/17 10:19:18;;;;;;;;;;;31.10;36.20;;;30.16;37.30;101237.53;12245905;19;19919;-84
2023/07/17 10:23:27;;;;;;;;;;;31.20;36.20;;;30.16;37.70;101232.13;12249473;19;19918;-85
2023/07/17 10:27:44;;;;;;;;;;;31.10;35.90;;;30.25;37.25;101249.03;12244564;19;19922;-84
2023/07/17 10:31:49;;;;;;;;;;;31.20;35.70;;;30.27;37.29;101239.66;12248373;19;19982;-84
2023/07/17 10:35:52;;;;;;;;;;;31.20;35.50;;;30.38;37.00;101240.94;12244138;19;19937;-84
2023/07/17 10:40:25;;;;;;;;;;;31.30;34.70;;;30.37;37.01;101244.69;12251418;19;19957;-84
2023/07/17 10:44:33;;;;;;;;;;;31.30;35.20;;;30.28;36.90;101251.31;12248063;19;19921;-84
2023/07/17 10:48:35;;;;;;;;;;;31.20;35.50;;;30.25;37.03;101243.63;12246728;19;19915;-84
2023/07/17 10:52:36;;;;;;;;;;;31.20;35.30;;;30.28;36.78;101238.66;12249446;19;19911;-84
2023/07/17 10:56:38;;;;;;;;;;;31.20;34.80;;;30.34;36.67;101234.31;12242932;19;19918;-84
2023/07/17 11:00:42;;;;;;;;;;;31.20;35.50;;;30.39;36.72;101232.66;12248024;19;19914;-84
2023/07/17 11:04:43;;;;;;;;;;;31.20;35.30;;;30.47;36.44;101230.84;12243019;19;19923;-84
2023/07/17 11:08:49;;;;;;;;;;;31.30;34.60;;;30.48;36.73;101225.22;12248316;19;20290;-84
2023/07/17 11:12:51;;;;;;;;;;;31.30;35.20;;;30.43;36.51;101215.06;12248266;19;19918;-84
2023/07/17 11:16:52;;;;;;;;;;;31.30;35.30;;;30.48;35.97;101235.19;12243040;19;19993;-85
2023/07/17 11:20:54;;;;;;;;;;;31.30;35.20;;;30.44;36.35;101218.59;12246042;19;20287;-84
2023/07/17 11:24:55;;;;;;;;;;;31.30;35.40;;;30.56;36.29;101221.50;12243325;19;19915;-84
2023/07/17 11:28:59;;;;;;;;;;;31.30;35.00;;;30.65;36.08;101209.50;12245670;19;19930;-84
2023/07/17 11:33:02;;;;;;;;;;;31.40;34.70;;;30.70;36.09;101216.97;12244841;19;19923;-84
2023/07/17 11:37:04;;;;;;;;;;;31.50;33.40;;;30.80;35.82;101226.34;12244789;19;19936;-84
2023/07/17 11:41:06;;;;;;;;;;;31.50;34.60;;;30.76;35.65;101222.38;12244214;19;20300;-84
2023/07/17 11:45:07;;;;;;;;;;;31.60;35.10;;;30.74;35.51;101229.00;12243419;19;20341;-84
2023/07/17 11:49:09;;;;;;;;;;;31.60;35.00;;;30.67;35.71;101231.69;12246093;19;19918;-84
2023/07/17 11:53:11;;;;;;;;;;;31.50;34.80;;;30.62;35.76;101216.16;12248424;19;19919;-84
2023/07/17 11:57:13;;;;;;;;;;;31.50;33.60;;;30.65;35.30;101215.72;12245033;19;19923;-84
2023/07/17 12:01:18;;;;;;;;;;;31.40;32.90;;;30.69;35.59;101216.13;12247635;19;19922;-84
2023/07/17 12:05:19;;;;;;;;;;;31.50;34.30;;;30.74;35.41;101202.88;12250915;19;19918;-84
2023/07/17 12:09:21;;;;;;;;;;;31.50;34.30;;;30.74;35.17;101194.78;12257374;19;20305;-84
2023/07/17 12:13:23;;;;;;;;;;;31.50;34.40;;;30.73;35.26;101214.72;12256102;19;19935;-84
2023/07/17 12:17:25;;;;;;;;;;;31.50;34.00;;;30.58;35.25;101190.63;12252871;19;19914;-84
2023/07/17 12:21:26;;;;;;;;;;;31.50;34.40;;;30.70;35.14;101209.69;12255026;19;19931;-84
2023/07/17 12:25:29;;;;;;;;;;;31.50;33.70;;;30.65;34.69;101202.25;12253200;19;19907;-84
2023/07/17 12:29:31;;;;;;;;;;;31.50;34.40;;;30.65;34.86;101191.47;12256052;19;20339;-84
2023/07/17 12:33:32;;;;;;;;;;;31.50;34.40;;;30.39;35.15;101146.44;12256350;19;19919;-84
2023/07/17 12:37:34;;;;;;;;;;;31.50;34.50;;;30.72;34.85;101193.31;12247421;19;19919;-84
2023/07/17 12:41:36;;;;;;;;;;;31.50;33.90;;;30.63;34.90;101163.03;12255561;19;19930;-84
2023/07/17 12:45:39;;;;;;;;;;;31.50;34.60;;;30.75;34.50;101191.03;12249886;19;19950;-84
2023/07/17 12:49:41;;;;;;;;;;;31.50;34.50;;;30.76;34.44;101178.38;12252814;19;19922;-84
2023/07/17 12:53:43;;;;;;;;;;;31.50;33.30;;;30.85;34.75;101182.59;12256582;19;20402;-84
2023/07/17 12:57:44;;;;;;;;;;;31.50;34.00;;;30.93;34.58;101170.75;12253127;19;19911;-84
2023/07/17 13:01:46;;;;;;;;;;;31.60;33.80;;;30.93;34.74;101173.44;12256101;19;19914;-85
2023/07/17 13:05:48;;;;;;;;;;;31.60;33.90;;;30.89;34.11;101172.19;12253068;19;19923;-84
2023/07/17 13:09:50;;;;;;;;;;;31.70;34.00;;;30.82;34.23;101154.16;12253015;19;19978;-84
2023/07/17 13:13:51;;;;;;;;;;;31.60;34.10;;;30.82;34.36;101167.63;12254807;19;19950;-84
2023/07/17 13:17:53;;;;;;;;;;;31.60;32.50;;;30.74;33.98;101148.94;12249432;19;19929;-84
2023/07/17 13:21:55;;;;;;;;;;;31.60;32.40;;;30.78;34.18;101162.81;12251965;19;19994;-84
2023/07/17 13:25:56;;;;;;;;;;;31.50;33.60;;;30.65;34.27;101151.03;12250673;19;20257;-84
2023/07/17 13:29:58;;;;;;;;;;;31.40;32.40;;;30.68;33.79;101170.50;12252040;19;19923;-84
2023/07/17 13:34:00;;;;;;;;;;;31.40;33.50;;;30.57;33.92;101167.41;12252771;19;20419;-84
2023/07/17 13:38:02;;;;;;;;;;;31.40;33.30;;;30.56;33.72;101181.06;12249104;19;20053;-84
2023/07/17 13:42:04;;;;;;;;;;;31.30;33.70;;;30.55;33.79;101188.34;12251703;19;19954;-89
2023/07/17 13:46:05;;;;;;;;;;;31.20;33.20;;;30.47;33.89;101163.44;12248270;19;19915;-89
2023/07/17 13:50:07;;;;;;;;;;;31.20;33.70;;;30.52;33.85;101177.16;12247872;19;20340;-87
2023/07/17 13:54:09;;;;;;;;;;;31.20;33.70;;;30.54;33.96;101180.44;12254000;19;19928;-89
2023/07/17 13:58:11;;;;;;;;;;;31.20;33.60;;;30.48;33.62;101165.91;12250061;19;19922;-89
2023/07/17 14:02:12;;;;;;;;;;;31.10;33.70;;;30.45;33.81;101158.25;12255855;19;19953;-89
2023/07/17 14:06:14;;;;;;;;;;;31.10;33.40;;;30.54;33.70;101161.56;12251783;19;19941;-90
2023/07/17 14:10:15;;;;;;;;;;;31.20;33.50;;;30.56;33.78;101163.03;12253751;19;19978;-90
2023/07/17 14:14:17;;;;;;;;;;;31.20;33.40;;;30.50;33.67;101146.84;12255257;19;20379;-89
2023/07/17 14:18:18;;;;;;;;;;;31.20;33.40;;;30.59;33.63;101153.69;12255269;19;19911;-89
2023/07/17 14:22:20;;;;;;;;;;;31.20;33.70;;;30.50;33.55;101136.06;12254213;19;19914;-90
2023/07/17 14:26:22;;;;;;;;;;;31.20;33.30;;;30.54;33.27;101151.63;12246317;19;19923;-89
2023/07/17 14:30:24;;;;;;;;;;;31.30;33.60;;;30.68;33.29;101165.09;12251676;19;19914;-89
2023/07/17 14:34:25;;;;;;;;;;;31.30;33.80;;;30.56;33.45;101141.47;12252065;19;19926;-89
2023/07/17 14:38:27;;;;;;;;;;;31.30;33.70;;;30.51;33.08;101154.72;12252027;19;20608;-89
2023/07/17 14:42:29;;;;;;;;;;;31.20;33.50;;;30.34;33.39;101116.56;12250413;19;19919;-89
2023/07/17 14:46:31;;;;;;;;;;;31.20;33.60;;;30.41;33.39;101148.94;12251302;19;19953;-90
2023/07/17 14:50:33;;;;;;;;;;;31.10;32.60;;;30.47;33.07;101148.09;12245902;19;19922;-89
2023/07/17 14:54:35;;;;;;;;;;;31.10;33.40;;;30.49;33.07;101139.78;12248511;19;19929;-89
2023/07/17 14:58:36;;;;;;;;;;;31.10;33.40;;;30.58;33.16;101138.56;12253245;19;19928;-89
2023/07/17 15:02:37;;;;;;;;;;;31.20;33.60;;;30.59;33.28;101130.25;12247982;19;19926;-89
2023/07/17 15:06:39;;;;;;;;;;;31.20;33.70;;;30.64;32.83;101137.72;12248837;19;20582;-89
2023/07/17 15:10:40;;;;;;;;;;;31.30;33.20;;;30.60;33.10;101125.72;12248667;19;20354;-89
2023/07/17 15:14:42;;;;;;;;;;;31.30;33.30;;;30.72;32.96;101144.78;12248977;19;20264;-89
2023/07/17 15:18:44;;;;;;;;;;;31.30;33.40;;;30.74;33.00;101140.03;12249698;19;20011;-89
2023/07/17 15:22:45;;;;;;;;;;;31.30;33.70;;;30.75;32.76;101147.88;12249464;19;19919;-89
2023/07/17 15:26:46;;;;;;;;;;;31.30;33.60;;;30.48;32.80;101095.00;12245187;19;20280;-89
2023/07/17 15:30:48;;;;;;;;;;;31.30;33.30;;;30.67;32.61;101126.53;12251495;19;19914;-89
2023/07/17 15:34:49;;;;;;;;;;;31.30;33.30;;;30.71;32.79;101132.34;12240469;19;19922;-89
2023/07/17 15:38:51;;;;;;;;;;;31.30;33.10;;;30.70;32.62;101125.28;12252345;19;19914;-89
2023/07/17 15:42:52;;;;;;;;;;;31.30;33.40;;;30.62;32.55;101135.25;12260399;19;19918;-89
2023/07/17 15:46:54;;;;;;;;;;;31.20;33.30;;;30.67;32.38;101133.78;12253228;19;19949;-90
2023/07/17 15:50:56;;;;;;;;;;;31.20;33.30;;;30.66;32.77;101132.97;12261398;19;19939;-90
2023/07/17 15:54:57;;;;;;;;;;;31.20;33.30;;;30.51;32.49;101105.38;12260626;19;20349;-87
2023/07/17 15:58:59;;;;;;;;;;;31.20;33.20;;;30.55;32.71;101120.13;12264190;19;19931;-88
2023/07/17 16:03:00;;;;;;;;;;;31.20;33.10;;;30.45;32.56;101101.66;12259829;19;20334;-88
2023/07/17 16:07:02;;;;;;;;;;;31.20;32.70;;;30.57;32.74;101135.06;12256576;19;19922;-89
2023/07/17 16:11:03;;;;;;;;;;;31.20;33.10;;;30.55;32.49;101129.03;12260204;19;20266;-89
2023/07/17 16:15:05;;;;;;;;;;;31.20;33.10;;;30.57;32.35;101131.50;12260263;19;19915;-89
2023/07/17 16:19:07;;;;;;;;;;;31.20;33.20;;;30.55;32.33;101130.91;12261894;19;19921;-88
2023/07/17 16:23:09;;;;;;;;;;;31.10;33.20;;;30.54;32.47;101134.59;12261853;19;19911;-89
2023/07/17 16:27:11;;;;;;;;;;;31.10;33.10;;;30.41;32.49;101125.50;12256610;19;19919;-89
2023/07/17 16:31:12;;;;;;;;;;;31.10;33.20;;;30.39;32.51;101132.94;12257776;19;19919;-89
2023/07/17 16:35:14;;;;;;;;;;;31.00;32.90;;;30.29;32.22;101127.13;12258955;19;19919;-89
2023/07/17 16:39:16;;;;;;;;;;;30.90;33.50;;;30.14;32.44;101134.53;12259937;19;19974;-89
2023/07/17 16:43:18;;;;;;;;;;;30.80;33.00;;;30.13;32.49;101144.47;12258631;19;20242;-89
2023/07/17 16:47:20;;;;;;;;;;;30.70;33.00;;;30.07;32.24;101147.97;12248862;19;19918;-88
2023/07/17 16:51:21;;;;;;;;;;;30.70;33.20;;;30.02;32.30;101144.25;12239012;19;19919;-88
2023/07/17 16:55:23;;;;;;;;;;;30.60;33.10;;;29.99;32.33;101146.28;12256918;19;19927;-89
2023/07/17 16:59:26;;;;;;;;;;;30.50;33.10;;;29.90;32.40;101141.31;12257108;19;20341;-88
2023/07/17 17:03:28;;;;;;;;;;;30.40;33.00;;;29.88;31.98;101149.59;12257190;19;20253;-89
2023/07/17 17:07:29;;;;;;;;;;;30.40;32.80;;;29.84;32.42;101167.19;12256286;19;19922;-88
2023/07/17 17:11:31;;;;;;;;;;;30.40;32.90;;;29.76;31.92;101167.38;12256060;19;19919;-88
2023/07/17 17:15:32;;;;;;;;;;;30.30;33.20;;;29.73;32.04;101162.34;12256725;19;19915;-88
2023/07/17 17:19:34;;;;;;;;;;;30.20;33.10;;;29.71;32.15;101167.13;12253428;19;20400;-88
2023/07/17 17:23:36;;;;;;;;;;;30.20;33.20;;;29.66;31.98;101167.72;12258863;19;19911;-89
2023/07/17 17:27:37;;;;;;;;;;;30.20;32.20;;;29.59;31.85;101182.97;12252721;19;19933;-88
2023/07/17 17:31:39;;;;;;;;;;;30.10;32.60;;;29.42;32.47;101166.31;12256017;19;19926;-88
2023/07/17 17:35:41;;;;;;;;;;;30.00;32.70;;;29.44;32.11;101187.66;12245633;19;19947;-88
2023/07/17 17:39:42;;;;;;;;;;;30.00;32.80;;;29.23;32.36;101177.78;12248809;19;19920;-88
2023/07/17 17:43:43;;;;;;;;;;;29.90;32.90;;;29.24;32.20;101195.59;12252961;19;19927;-88
2023/07/17 17:47:45;;;;;;;;;;;29.80;33.00;;;29.19;32.16;101211.47;12251018;19;19915;-88
2023/07/17 17:51:47;;;;;;;;;;;29.70;33.00;;;29.13;31.79;101207.72;12253393;19;20026;-89
2023/07/17 17:55:48;;;;;;;;;;;29.70;33.10;;;28.89;32.28;101177.53;12254801;19;19911;-88
2023/07/17 17:59:50;;;;;;;;;;;29.60;32.90;;;28.97;32.10;101200.72;12254886;19;19911;-88
2023/07/17 18:03:52;;;;;;;;;;;29.50;32.90;;;28.95;32.20;101228.84;12256499;19;19934;-88
2023/07/17 18:07:53;;;;;;;;;;;29.40;32.90;;;28.90;31.99;101216.00;12253021;19;19918;-88